createdAt,value
2024-04-14T00:04:17.591Z,7.57
2024-04-14T00:09:39.359Z,6.72
2024-04-14T00:15:00.983Z,8.73
2024-04-14T00:20:24.345Z,6.25
2024-04-14T00:25:46.989Z,8.65
2024-04-14T00:31:08.956Z,8.82
2024-04-14T00:36:31.084Z,9.85
2024-04-14T00:41:52.534Z,9.50
2024-04-14T00:47:14.438Z,9.88
2024-04-14T00:52:35.962Z,11.88
2024-04-14T00:57:59.035Z,9.55
2024-04-14T01:03:21.052Z,10.57
2024-04-14T01:08:42.447Z,11.32
2024-04-14T01:14:05.289Z,11.00
2024-04-14T01:19:27.024Z,10.43
2024-04-14T01:24:50.356Z,11.27
2024-04-14T01:30:12.080Z,10.63
2024-04-14T01:35:34.058Z,8.98
2024-04-14T01:40:55.671Z,8.75
2024-04-14T01:46:17.181Z,8.85
2024-04-14T01:51:38.782Z,7.90
2024-04-14T01:57:00.160Z,8.35
2024-04-14T02:07:43.526Z,7.03
2024-04-14T02:13:04.909Z,8.65
2024-04-14T02:18:26.646Z,7.10
2024-04-14T02:23:48.269Z,8.52
2024-04-14T02:29:09.815Z,9.70
2024-04-14T02:34:31.658Z,8.75
2024-04-14T02:39:54.650Z,8.43
2024-04-14T02:45:16.875Z,8.18
2024-04-14T02:50:38.794Z,5.97
2024-04-14T02:56:00.283Z,7.18
2024-04-14T03:01:22.371Z,8.82
2024-04-14T03:06:45.570Z,6.95
2024-04-14T03:12:07.984Z,9.65
2024-04-14T03:17:29.486Z,7.90
2024-04-14T03:22:51.011Z,7.72
2024-04-14T03:33:34.090Z,6.57
2024-04-14T03:38:55.909Z,8.38
2024-04-14T03:44:17.201Z,8.25
2024-04-14T03:49:39.650Z,6.50
2024-04-14T03:55:01.425Z,6.22
2024-04-14T04:00:23.272Z,6.95
2024-04-14T04:05:55.477Z,7.93
2024-04-14T04:16:40.902Z,7.18
2024-04-14T04:22:03.832Z,7.60
2024-04-14T04:27:25.355Z,6.55
2024-04-14T04:32:46.953Z,7.32
2024-04-14T04:38:08.534Z,6.18
2024-04-14T04:43:30.305Z,8.93
2024-04-14T04:48:53.448Z,8.90
2024-04-14T04:54:15.283Z,8.25
2024-04-14T04:59:36.996Z,7.78
2024-04-14T05:04:58.244Z,7.25
2024-04-14T05:10:19.928Z,6.38
2024-04-14T05:15:43.045Z,7.05
2024-04-14T05:21:04.871Z,7.78
2024-04-14T05:26:26.833Z,10.15
2024-04-14T05:31:48.287Z,8.25
2024-04-14T05:37:11.794Z,6.45
2024-04-14T05:42:33.604Z,8.15
2024-04-14T05:47:58.015Z,7.82
2024-04-14T05:53:20.189Z,7.38
2024-04-14T05:58:43.300Z,7.82
2024-04-14T06:04:05.063Z,7.18
2024-04-14T06:09:26.870Z,7.05
2024-04-14T06:14:48.354Z,7.15
2024-04-14T06:20:10.140Z,6.93
2024-04-14T06:25:31.826Z,6.35
2024-04-14T06:30:53.420Z,7.88
2024-04-14T06:36:14.921Z,8.07
2024-04-14T06:41:36.480Z,7.82
2024-04-14T06:46:57.847Z,9.57
2024-04-14T06:52:19.371Z,8.27
2024-04-14T06:57:40.607Z,10.73
2024-04-14T07:03:02.042Z,8.40
2024-04-14T07:08:23.637Z,12.00
2024-04-14T07:13:44.835Z,11.60
2024-04-14T07:19:06.368Z,8.15
2024-04-14T07:24:27.444Z,6.93
2024-04-14T07:29:49.019Z,8.30
2024-04-14T07:35:10.315Z,8.80
2024-04-14T07:40:32.047Z,8.35
2024-04-14T07:45:53.908Z,6.80
2024-04-14T07:51:15.168Z,7.03
2024-04-14T07:56:36.469Z,6.10
2024-04-14T08:01:57.472Z,7.70
2024-04-14T08:07:18.833Z,6.45
2024-04-14T08:12:40.394Z,8.00
2024-04-14T08:18:03.079Z,7.80
2024-04-14T08:23:24.421Z,6.22
2024-04-14T08:28:45.589Z,6.57
2024-04-14T08:34:09.128Z,5.75
2024-04-14T08:39:30.808Z,7.20
2024-04-14T08:44:52.735Z,6.60
2024-04-14T08:50:14.300Z,8.20
2024-04-14T08:55:35.767Z,7.45
2024-04-14T09:01:05.337Z,9.05
2024-04-14T09:06:30.521Z,11.70
2024-04-14T09:11:54.868Z,11.35
2024-04-14T09:17:16.857Z,5.20
2024-04-14T09:22:38.594Z,4.30
2024-04-14T09:28:12.116Z,5.55
2024-04-14T09:33:33.719Z,3.97
2024-04-14T09:38:55.922Z,3.53
2024-04-14T09:44:20.884Z,4.45
2024-04-14T09:49:45.188Z,3.85
2024-04-14T09:55:07.824Z,7.30
2024-04-14T10:00:29.656Z,4.35
2024-04-14T10:05:51.507Z,5.55
2024-04-14T10:11:13.037Z,8.02
2024-04-14T10:16:34.443Z,10.70
2024-04-14T10:22:02.996Z,9.48
2024-04-14T10:27:24.873Z,2.95
2024-04-14T10:32:48.562Z,11.00
2024-04-14T10:38:21.553Z,11.50
2024-04-14T10:49:06.563Z,7.85
2024-04-14T10:54:30.812Z,6.78
2024-04-14T10:59:52.164Z,6.85
2024-04-14T11:05:13.707Z,3.97
2024-04-14T11:10:35.120Z,7.60
2024-04-14T11:16:00.460Z,8.75
2024-04-14T11:21:25.359Z,5.88
2024-04-14T11:26:47.278Z,7.90
2024-04-14T11:32:28.822Z,4.63
2024-04-14T11:37:52.496Z,6.13
2024-04-14T11:43:13.735Z,5.40
2024-04-14T11:48:35.034Z,4.47
2024-04-14T11:53:56.701Z,4.07
2024-04-14T11:59:18.215Z,8.77
2024-04-14T12:04:39.513Z,4.80
2024-04-14T12:10:00.998Z,3.40
2024-04-14T12:15:22.303Z,2.20
2024-04-14T12:20:43.606Z,5.32
2024-04-14T12:26:05.403Z,3.35
2024-04-14T12:31:27.013Z,7.05
2024-04-14T12:36:49.338Z,6.00
2024-04-14T12:42:11.821Z,6.55
2024-04-14T12:47:34.586Z,5.32
2024-04-14T12:52:56.207Z,2.92
2024-04-14T12:58:17.497Z,6.90
2024-04-14T13:03:38.800Z,3.28
2024-04-14T13:09:01.210Z,3.55
2024-04-14T13:14:22.446Z,7.00
2024-04-14T13:19:43.650Z,5.85
2024-04-14T13:25:08.287Z,3.50
2024-04-14T13:30:30.079Z,4.25
2024-04-14T13:35:51.668Z,5.90
2024-04-14T13:41:13.094Z,8.48
2024-04-14T13:46:34.935Z,5.22
2024-04-14T13:51:56.103Z,4.28
2024-04-14T13:57:18.787Z,5.63
2024-04-14T14:02:40.395Z,2.95
2024-04-14T14:08:03.070Z,5.22
2024-04-14T14:13:26.905Z,3.13
2024-04-14T14:18:49.870Z,2.85
2024-04-14T14:24:11.577Z,6.30
2024-04-14T14:29:33.124Z,9.20
2024-04-14T14:35:13.325Z,9.18
2024-04-14T14:40:34.840Z,5.30
2024-04-14T14:51:17.241Z,4.20
2024-04-14T14:56:38.845Z,3.58
2024-04-14T15:02:00.517Z,4.57
2024-04-14T15:07:22.136Z,5.45
2024-04-14T15:12:44.592Z,4.72
2024-04-14T15:18:08.901Z,3.72
2024-04-14T15:23:34.634Z,5.13
2024-04-14T15:28:56.449Z,1.63
2024-04-14T15:34:17.659Z,3.90
2024-04-14T15:39:40.452Z,5.95
2024-04-14T15:45:01.483Z,3.58
2024-04-14T15:50:23.163Z,3.40
2024-04-14T15:55:44.710Z,3.60
2024-04-14T16:06:28.801Z,3.83
2024-04-14T16:11:50.407Z,5.68
2024-04-14T16:17:11.826Z,3.72
2024-04-14T16:27:54.413Z,1.60
2024-04-14T16:33:16.628Z,4.68
2024-04-14T16:38:38.553Z,2.80
2024-04-14T16:44:00.782Z,3.22
2024-04-14T16:49:23.091Z,3.50
2024-04-14T16:54:45.232Z,5.63
2024-04-14T17:00:09.762Z,4.53
2024-04-14T17:05:32.692Z,2.22
2024-04-14T17:10:55.015Z,2.90
2024-04-14T17:16:17.180Z,4.32
2024-04-14T17:21:39.138Z,5.13
2024-04-14T17:27:01.542Z,3.97
2024-04-14T17:32:23.972Z,5.40
2024-04-14T17:37:46.286Z,4.22
2024-04-14T17:43:09.069Z,10.27
2024-04-14T17:48:32.019Z,13.15
2024-04-14T17:53:54.522Z,18.83
2024-04-14T17:59:17.651Z,18.25
2024-04-14T18:04:41.371Z,15.52
2024-04-14T18:10:03.269Z,28.83
2024-04-14T18:15:25.415Z,11.95
2024-04-14T18:20:49.102Z,10.55
2024-04-14T18:26:10.652Z,9.73
2024-04-14T18:42:17.391Z,17.48
2024-04-14T18:53:00.893Z,23.80
2024-04-14T18:58:22.658Z,22.55
2024-04-14T19:03:44.853Z,21.83
2024-04-14T19:09:06.567Z,8.60
2024-04-14T19:14:28.443Z,15.25
2024-04-14T19:19:51.097Z,14.77
2024-04-14T19:25:13.767Z,8.95
2024-04-14T19:30:35.602Z,9.45
2024-04-14T19:35:58.516Z,10.27
2024-04-14T19:41:21.178Z,9.02
2024-04-14T19:46:43.094Z,11.68
2024-04-14T19:52:05.089Z,7.57
2024-04-14T19:57:26.931Z,7.03
2024-04-14T20:02:51.450Z,4.40
2024-04-14T20:15:52.562Z,8.93
2024-04-14T20:57:14.922Z,8.00
2024-04-14T21:02:42.776Z,68.15
2024-04-14T21:08:34.050Z,117.38
2024-04-14T21:14:57.628Z,34.83
2024-04-14T21:20:33.741Z,32.30
2024-04-14T21:32:23.129Z,8.05
2024-04-14T21:37:47.402Z,9.90
2024-04-14T21:43:13.870Z,7.03
2024-04-14T21:49:03.168Z,9.95
2024-04-14T22:01:20.291Z,6.78
2024-04-14T22:14:30.843Z,10.35
2024-04-14T22:27:09.734Z,8.88
2024-04-14T22:33:12.686Z,10.40
2024-04-14T22:45:09.860Z,9.63
2024-04-14T22:51:26.873Z,8.77
2024-04-14T22:56:55.557Z,8.10
2024-04-14T23:02:30.806Z,7.25
2024-04-14T23:07:59.571Z,7.43
2024-04-14T23:13:24.064Z,6.68
2024-04-14T23:18:45.816Z,6.18
2024-04-14T23:24:32.983Z,8.70
2024-04-14T23:30:00.466Z,8.77
2024-04-14T23:35:27.599Z,8.25
2024-04-14T23:40:53.730Z,5.53
2024-04-14T23:46:23.264Z,7.45
2024-04-14T23:51:51.297Z,10.82
2024-04-14T23:57:13.412Z,9.70
